createdAt,value
2023-05-17T00:10:01.178Z,54.20
2023-05-17T00:30:01.217Z,49.20
2023-05-17T00:40:01.295Z,40.40
2023-05-17T00:50:01.178Z,51.90
2023-05-17T01:00:01.271Z,42.00
2023-05-17T01:10:01.156Z,42.30
2023-05-17T01:20:01.513Z,55.20
2023-05-17T01:30:01.189Z,37.90
2023-05-17T01:50:01.207Z,29.30
2023-05-17T02:10:01.133Z,82.80
2023-05-17T02:30:01.141Z,33.50
2023-05-17T02:40:00.508Z,43.00
2023-05-17T02:50:01.335Z,44.40
2023-05-17T03:00:01.164Z,46.80
2023-05-17T03:20:01.144Z,42.80
2023-05-17T03:30:01.283Z,39.00
2023-05-17T03:40:00.500Z,37.60
2023-05-17T04:00:01.188Z,58.60
2023-05-17T04:10:01.368Z,51.80
2023-05-17T04:20:01.157Z,58.10
2023-05-17T04:30:01.227Z,43.70
2023-05-17T04:40:01.172Z,49.00
2023-05-17T04:50:01.274Z,48.00
2023-05-17T05:00:01.246Z,58.70
2023-05-17T05:10:01.228Z,47.90
2023-05-17T05:20:01.220Z,39.10
2023-05-17T05:30:01.241Z,49.30
2023-05-17T05:40:01.176Z,54.70
2023-05-17T05:50:01.336Z,45.70
2023-05-17T06:00:01.198Z,59.90
2023-05-17T06:20:01.223Z,48.70
2023-05-17T06:30:01.261Z,52.50
2023-05-17T06:40:09.900Z,49.20
2023-05-17T06:50:01.269Z,42.20
2023-05-17T07:00:01.381Z,72.10
2023-05-17T07:10:01.288Z,67.60
2023-05-17T07:20:01.297Z,63.20
2023-05-17T07:30:01.346Z,74.90
2023-05-17T07:40:01.152Z,51.00
2023-05-17T07:50:01.230Z,68.60
2023-05-17T08:00:01.179Z,71.80
2023-05-17T08:20:01.233Z,79.70
2023-05-17T08:30:01.229Z,59.80
2023-05-17T08:40:01.260Z,62.50
2023-05-17T08:50:01.223Z,50.90
2023-05-17T09:00:01.187Z,68.70
2023-05-17T09:10:01.148Z,75.10
2023-05-17T09:20:01.516Z,68.10
2023-05-17T09:30:01.161Z,76.10
2023-05-17T09:40:01.136Z,69.30
2023-05-17T09:50:01.152Z,64.10
2023-05-17T10:00:01.123Z,100.30
2023-05-17T10:10:01.152Z,82.20
2023-05-17T10:20:01.243Z,81.80
2023-05-17T10:30:01.231Z,104.90
2023-05-17T10:40:01.154Z,102.80
2023-05-17T10:50:01.157Z,142.50
2023-05-17T11:00:01.224Z,505.10
2023-05-17T11:20:01.267Z,640.30
2023-05-17T11:30:01.154Z,731.80
2023-05-17T11:40:01.204Z,724.00
2023-05-17T11:50:01.243Z,741.90
2023-05-17T12:00:01.184Z,761.90
2023-05-17T12:10:01.278Z,763.60
2023-05-17T12:20:01.208Z,770.00
2023-05-17T12:40:01.097Z,779.60
2023-05-17T12:50:01.249Z,788.20
2023-05-17T13:00:01.087Z,773.50
2023-05-17T13:10:01.251Z,778.80
2023-05-17T13:20:01.226Z,772.90
2023-05-17T13:30:01.193Z,771.10
2023-05-17T13:40:01.145Z,772.00
2023-05-17T13:50:01.157Z,766.50
2023-05-17T14:00:01.162Z,754.80
2023-05-17T14:10:01.197Z,741.30
2023-05-17T14:20:01.195Z,724.60
2023-05-17T14:30:01.234Z,707.20
2023-05-17T14:50:01.249Z,694.90
2023-05-17T15:00:01.124Z,684.00
2023-05-17T15:10:01.105Z,674.10
2023-05-17T15:20:01.266Z,647.50
2023-05-17T15:30:01.214Z,486.90
2023-05-17T15:40:01.146Z,441.30
2023-05-17T15:50:01.247Z,483.70
2023-05-17T16:00:01.179Z,442.90
2023-05-17T16:10:01.208Z,387.80
2023-05-17T16:20:01.231Z,392.10
2023-05-17T16:30:01.165Z,388.00
2023-05-17T16:40:01.230Z,315.30
2023-05-17T16:50:01.226Z,309.00
2023-05-17T17:00:01.276Z,300.40
2023-05-17T17:10:01.309Z,431.10
2023-05-17T17:20:01.186Z,417.90
2023-05-17T17:30:01.124Z,295.40
2023-05-17T17:40:01.546Z,245.50
2023-05-17T17:50:01.161Z,251.40
2023-05-17T18:00:01.142Z,275.10
2023-05-17T18:10:01.212Z,224.70
2023-05-17T18:20:01.472Z,198.70
2023-05-17T18:30:01.202Z,235.80
2023-05-17T18:40:01.100Z,155.80
2023-05-17T18:50:01.345Z,181.80
2023-05-17T19:00:01.141Z,215.20
2023-05-17T19:10:01.176Z,176.10
2023-05-17T19:20:01.210Z,176.90
2023-05-17T19:30:01.181Z,151.10
2023-05-17T19:40:01.187Z,137.00
2023-05-17T19:50:01.302Z,109.40
2023-05-17T20:00:01.133Z,79.40
2023-05-17T20:10:02.031Z,101.40
2023-05-17T20:20:01.187Z,77.80
2023-05-17T20:30:01.210Z,83.40
2023-05-17T20:40:01.167Z,71.70
2023-05-17T21:00:01.211Z,61.40
2023-05-17T21:10:01.262Z,75.10
2023-05-17T21:20:01.241Z,111.50
2023-05-17T21:30:01.249Z,106.80
2023-05-17T21:40:01.123Z,65.60
2023-05-17T21:50:01.183Z,71.60
2023-05-17T22:00:01.154Z,42.10
2023-05-17T22:10:01.200Z,95.40
2023-05-17T22:20:01.203Z,78.30
2023-05-17T22:30:01.408Z,79.50
2023-05-17T22:40:01.149Z,64.10
2023-05-17T23:00:01.358Z,71.10
2023-05-17T23:10:01.169Z,61.00
2023-05-17T23:20:01.200Z,81.60
2023-05-17T23:30:01.289Z,89.10
2023-05-17T23:40:01.130Z,101.70
2023-05-17T23:50:01.376Z,92.30
